Time;durP1;ratioP1;P1;durP2;ratioP2;P2;SDS_P1;SDS_P2;PMS_P1;PMS_P2;Temp;Humidity;BMP_temperature;BMP_pressure;BME280_temperature;BME280_humidity;BME280_pressure;Samples;Min_cycle;Max_cycle;Signal;HPM_P1;HPM_P2
2022/12/20 00:01:48;;;;;;;7.10;2.90;;;;;;;8.66;91.55;101291.34;5032456;28;21043;-78
2022/12/20 00:04:13;;;;;;;4.63;2.25;;;;;;;8.66;91.64;101292.22;5026610;28;20117;-78
2022/12/20 00:06:40;;;;;;;5.60;2.88;;;;;;;8.70;91.31;101295.63;5040189;28;20110;-79
2022/12/20 00:09:07;;;;;;;5.43;3.20;;;;;;;8.74;91.13;101301.78;5046919;28;20140;-79
2022/12/20 00:11:33;;;;;;;5.40;3.20;;;;;;;8.72;91.11;101291.03;5047418;28;20132;-78
2022/12/20 00:13:58;;;;;;;5.90;2.83;;;;;;;8.73;91.37;101298.19;5027691;28;20108;-79
2022/12/20 00:16:28;;;;;;;4.68;2.60;;;;;;;8.75;91.05;101284.53;5025502;28;20461;-79
2022/12/20 00:18:59;;;;;;;6.40;2.63;;;;;;;8.82;90.97;101281.38;5025287;28;20503;-79
2022/12/20 00:21:26;;;;;;;4.65;2.78;;;;;;;8.87;91.12;101289.25;5026708;28;20037;-79
2022/12/20 00:23:52;;;;;;;4.78;2.67;;;;;;;8.90;90.43;101284.50;5025892;28;20103;-80
2022/12/20 00:26:24;;;;;;;5.70;3.00;;;;;;;8.92;90.36;101279.00;5025910;28;20041;-79
2022/12/20 00:28:50;;;;;;;5.10;2.70;;;;;;;8.95;90.50;101276.09;5025405;28;20159;-79
2022/12/20 00:31:17;;;;;;;6.28;4.00;;;;;;;8.98;90.42;101267.78;5027116;28;20033;-79
2022/12/20 00:33:48;;;;;;;6.15;3.15;;;;;;;8.95;90.79;101270.66;5030115;28;20228;-79
2022/12/20 00:36:15;;;;;;;4.40;3.00;;;;;;;8.96;90.87;101267.00;5044015;28;20041;-80
2022/12/20 00:38:44;;;;;;;7.43;2.95;;;;;;;8.98;90.88;101272.34;5037957;28;20434;-78
2022/12/20 00:41:12;;;;;;;8.40;2.92;;;;;;;8.95;90.41;101262.53;5027259;28;20439;-79
2022/12/20 00:43:38;;;;;;;7.85;2.67;;;;;;;9.02;90.48;101263.06;5027238;28;20059;-79
2022/12/20 00:46:05;;;;;;;6.43;2.83;;;;;;;9.04;90.18;101248.41;5026654;28;20069;-79
2022/12/20 00:48:32;;;;;;;5.28;2.53;;;;;;;9.08;89.63;101241.84;5030435;28;20029;-78
2022/12/20 00:50:59;;;;;;;8.82;3.53;;;;;;;9.16;89.51;101242.25;5026238;28;20389;-79
2022/12/20 00:53:24;;;;;;;8.30;3.35;;;;;;;9.15;90.01;101229.66;5027667;28;20032;-79
2022/12/20 00:55:50;;;;;;;6.43;2.85;;;;;;;9.23;89.25;101245.47;5045156;28;20033;-79
2022/12/20 00:58:15;;;;;;;7.35;3.20;;;;;;;9.27;89.50;101259.72;5039683;28;20450;-79
2022/12/20 01:00:40;;;;;;;5.40;3.08;;;;;;;9.28;89.86;101250.59;5026276;28;20142;-79
2022/12/20 01:03:06;;;;;;;22.75;5.00;;;;;;;9.29;89.82;101252.38;5025005;28;20136;-79
2022/12/20 01:05:32;;;;;;;10.70;3.92;;;;;;;9.31;89.44;101250.44;5030997;28;20067;-79
2022/12/20 01:07:57;;;;;;;7.53;3.85;;;;;;;9.35;89.56;101254.72;5037332;28;20091;-79
2022/12/20 01:10:23;;;;;;;11.20;3.83;;;;;;;9.38;89.89;101254.53;5030598;28;20477;-79
2022/12/20 01:12:48;;;;;;;6.60;2.80;;;;;;;9.35;91.49;101247.44;5031067;28;20443;-79
2022/12/20 01:15:14;;;;;;;9.38;3.20;;;;;;;9.34;92.29;101261.13;5028801;28;20515;-79
2022/12/20 01:17:40;;;;;;;8.30;3.55;;;;;;;9.30;92.87;101259.56;5028657;28;20068;-79
2022/12/20 01:20:06;;;;;;;6.10;3.42;;;;;;;9.31;93.38;101261.28;5011760;28;20037;-79
2022/12/20 01:22:31;;;;;;;4.43;3.13;;;;;;;9.27;93.46;101251.59;5029741;28;20038;-78
2022/12/20 01:24:57;;;;;;;5.97;2.97;;;;;;;9.33;93.65;101262.09;5029435;28;20037;-79
2022/12/20 01:27:22;;;;;;;8.15;3.50;;;;;;;9.29;94.44;101249.66;5030916;28;20042;-79
2022/12/20 01:29:47;;;;;;;8.43;3.40;;;;;;;9.25;95.56;101250.81;5042918;28;20033;-78
2022/12/20 01:32:13;;;;;;;10.23;3.67;;;;;;;9.22;96.27;101264.56;5030555;28;20048;-77
2022/12/20 01:34:38;;;;;;;8.27;2.72;;;;;;;9.16;96.90;101263.97;5027986;28;20090;-79
2022/12/20 01:37:04;;;;;;;9.75;3.42;;;;;;;9.15;98.35;101266.78;5048092;28;20079;-78
2022/12/20 01:39:29;;;;;;;4.65;3.35;;;;;;;9.11;98.47;101255.22;5049205;28;20032;-77
2022/12/20 01:41:54;;;;;;;7.38;3.22;;;;;;;9.06;99.24;101246.50;5045052;28;20041;-77
2022/12/20 01:44:20;;;;;;;8.77;3.55;;;;;;;9.05;99.90;101241.16;5033364;28;20037;-78
2022/12/20 01:46:48;;;;;;;6.05;2.97;;;;;;;9.02;100.00;101242.22;5028513;28;20168;-79
2022/12/20 01:49:22;;;;;;;7.47;3.28;;;;;;;8.98;100.00;101237.94;5035884;28;20036;-78
2022/12/20 01:51:50;;;;;;;5.97;3.08;;;;;;;8.98;100.00;101246.06;5048887;28;20541;-78
2022/12/20 01:54:26;;;;;;;5.47;3.20;;;;;;;8.94;100.00;101233.63;5026782;28;20501;-78
2022/12/20 01:56:58;;;;;;;11.02;3.63;;;;;;;8.93;100.00;101226.47;5030673;28;20060;-78
2022/12/20 01:59:26;;;;;;;6.57;3.38;;;;;;;8.99;100.00;101227.94;5039235;28;20025;-78
2022/12/20 02:01:51;;;;;;;8.20;4.20;;;;;;;8.96;100.00;101211.88;5041496;28;20083;-78
2022/12/20 02:04:16;;;;;;;7.57;3.28;;;;;;;8.93;100.00;101221.91;5038487;28;20554;-79
2022/12/20 02:06:42;;;;;;;7.57;3.60;;;;;;;8.93;100.00;101221.91;5044588;28;20037;-77
2022/12/20 02:09:08;;;;;;;6.55;3.53;;;;;;;8.93;100.00;101218.34;5048345;28;20546;-77
2022/12/20 02:11:44;;;;;;;9.25;3.47;;;;;;;8.94;100.00;101217.38;5048519;28;20539;-77
2022/12/20 02:14:34;;;;;;;7.60;3.58;;;;;;;8.88;100.00;101201.47;5028232;28;20042;-78
2022/12/20 02:17:29;;;;;;;10.60;3.83;;;;;;;8.94;100.00;101188.38;5040753;28;20112;-77
2022/12/20 02:19:58;;;;;;;10.80;3.67;;;;;;;8.96;100.00;101191.03;5031575;28;20511;-78
2022/12/20 02:22:54;;;;;;;8.45;4.05;;;;;;;8.94;100.00;101188.38;5027647;28;20056;-79
2022/12/20 02:25:30;;;;;;;15.77;5.20;;;;;;;8.92;100.00;101186.75;5029220;28;20494;-78
2022/12/20 02:28:07;;;;;;;6.53;3.10;;;;;;;8.91;100.00;101177.72;5028666;28;20051;-78
2022/12/20 02:30:36;;;;;;;5.63;3.67;;;;;;;8.89;100.00;101176.06;5029037;28;20068;-78
2022/12/20 02:33:07;;;;;;;5.90;3.47;;;;;;;8.88;100.00;101179.75;5027859;28;20488;-77
2022/12/20 02:35:35;;;;;;;6.10;2.75;;;;;;;8.83;100.00;101171.88;5046218;28;20079;-77
2022/12/20 02:38:22;;;;;;;4.10;3.22;;;;;;;8.81;100.00;101168.41;5047820;28;20017;-78
2022/12/20 02:40:52;;;;;;;6.15;2.90;;;;;;;8.76;100.00;101158.78;5047932;28;20087;-78
2022/12/20 02:46:06;;;;;;;5.47;3.10;;;;;;;8.73;100.00;101167.97;5037671;28;20033;-78
2022/12/20 02:48:36;;;;;;;4.75;2.92;;;;;;;8.76;100.00;101170.50;5027253;28;20088;-77
2022/12/20 02:51:04;;;;;;;3.60;2.60;;;;;;;8.73;100.00;101167.97;5026669;28;20056;-78
2022/12/20 02:53:30;;;;;;;4.60;3.10;;;;;;;8.74;100.00;101158.88;5027482;28;20141;-78
2022/12/20 02:56:04;;;;;;;6.88;2.80;;;;;;;8.77;100.00;101164.13;5027963;28;20065;-77
2022/12/20 02:58:40;;;;;;;3.42;2.65;;;;;;;8.74;100.00;101152.56;5027771;28;20041;-77
2022/12/20 03:01:10;;;;;;;2.45;2.20;;;;;;;8.74;100.00;101155.28;5032161;28;20061;-77
2022/12/20 03:03:37;;;;;;;4.70;3.03;;;;;;;8.74;100.00;101149.88;5010523;28;20124;-77
2022/12/20 03:06:02;;;;;;;3.90;2.63;;;;;;;8.79;100.00;101155.88;5036219;28;20044;-78
2022/12/20 03:08:28;;;;;;;4.65;2.92;;;;;;;8.78;100.00;101149.59;5047776;28;20033;-77
2022/12/20 03:10:54;;;;;;;4.47;2.83;;;;;;;8.74;100.00;101156.16;5030935;28;20024;-78
2022/12/20 03:13:22;;;;;;;3.63;2.05;;;;;;;8.73;100.00;101153.56;5047087;28;20029;-78
2022/12/20 03:15:57;;;;;;;3.75;2.60;;;;;;;8.74;100.00;101155.28;5030515;28;20049;-77
2022/12/20 03:18:23;;;;;;;3.60;2.50;;;;;;;8.76;100.00;101151.50;5026951;28;20408;-78
2022/12/20 03:20:48;;;;;;;3.83;2.70;;;;;;;8.79;100.00;101164.03;5027174;28;20577;-77
2022/12/20 03:23:13;;;;;;;4.60;2.65;;;;;;;8.80;100.00;101149.50;5027339;28;20555;-78
2022/12/20 03:25:39;;;;;;;4.13;2.50;;;;;;;8.83;100.00;101144.75;5027090;28;20033;-78
2022/12/20 03:28:06;;;;;;;7.70;2.80;;;;;;;8.91;100.00;101150.59;5038137;28;20400;-77
2022/12/20 03:30:32;;;;;;;6.43;2.67;;;;;;;8.94;100.00;101141.38;5026202;28;20033;-78
2022/12/20 03:32:57;;;;;;;6.40;3.50;;;;;;;8.99;99.85;101138.38;5047315;28;20088;-78
2022/12/20 03:35:23;;;;;;;5.07;2.80;;;;;;;9.01;99.63;101139.19;5030876;28;20037;-78
2022/12/20 03:37:48;;;;;;;7.30;2.55;;;;;;;9.00;99.74;101134.69;5045755;28;20488;-78
2022/12/20 03:40:14;;;;;;;4.25;2.53;;;;;;;9.02;99.68;101141.78;5026896;28;20040;-78
2022/12/20 03:42:40;;;;;;;4.05;2.80;;;;;;;9.03;99.68;101138.09;5010359;28;20030;-78
2022/12/20 03:45:06;;;;;;;7.43;2.30;;;;;;;9.08;99.56;101154.09;5026622;28;20503;-78
2022/12/20 03:47:32;;;;;;;6.32;2.45;;;;;;;9.15;99.30;101166.34;5026587;28;20124;-77
2022/12/20 03:49:58;;;;;;;4.47;2.90;;;;;;;9.22;99.12;101164.13;5030314;28;20152;-78
2022/12/20 03:52:23;;;;;;;4.53;2.70;;;;;;;9.25;99.19;101156.66;5025928;28;20037;-78
2022/12/20 03:54:49;;;;;;;4.07;2.58;;;;;;;9.29;98.71;101158.22;5026246;28;20060;-78
2022/12/20 03:57:18;;;;;;;5.78;2.97;;;;;;;9.34;98.78;101157.94;5026430;28;20040;-79
2022/12/20 03:59:45;;;;;;;4.72;2.65;;;;;;;9.29;98.40;101141.94;5025996;28;20037;-78
2022/12/20 04:02:13;;;;;;;4.90;2.60;;;;;;;9.37;98.33;101149.59;5026101;28;20037;-78
2022/12/20 04:04:40;;;;;;;7.18;2.53;;;;;;;9.38;98.23;101144.09;5025254;28;20433;-78
2022/12/20 04:07:05;;;;;;;3.83;2.58;;;;;;;9.38;98.06;101135.94;5029383;28;20066;-77
2022/12/20 04:09:33;;;;;;;3.10;2.67;;;;;;;9.41;97.82;101137.56;5026413;28;20034;-78
2022/12/20 04:12:04;;;;;;;4.85;2.55;;;;;;;9.50;97.96;101146.97;5026298;28;20029;-77
2022/12/20 04:14:31;;;;;;;3.33;2.50;;;;;;;9.52;97.52;101143.22;5010053;28;20026;-78
2022/12/20 04:16:57;;;;;;;3.15;2.42;;;;;;;9.52;97.78;101140.50;5026050;28;20404;-78
2022/12/20 04:19:22;;;;;;;4.68;2.72;;;;;;;9.54;97.22;101143.09;5025122;28;20094;-78
2022/12/20 04:21:48;;;;;;;2.88;2.45;;;;;;;9.61;96.69;101147.19;5009178;28;20038;-78
2022/12/20 04:24:15;;;;;;;8.43;2.80;;;;;;;9.65;96.40;101143.28;5025813;28;20496;-78
2022/12/20 04:27:01;;;;;;;4.05;2.55;;;;;;;9.69;96.01;101143.00;5025827;28;20140;-77
2022/12/20 04:29:26;;;;;;;4.43;2.38;;;;;;;9.71;96.01;101138.34;5026210;28;20388;-79
2022/12/20 04:31:52;;;;;;;3.40;2.40;;;;;;;9.71;95.71;101132.91;5025553;28;20029;-78
2022/12/20 04:34:18;;;;;;;7.07;2.70;;;;;;;9.76;95.20;101142.63;5024752;28;20087;-78
2022/12/20 04:36:44;;;;;;;5.55;2.65;;;;;;;9.77;95.60;101142.50;5042243;28;20493;-78
2022/12/20 04:39:15;;;;;;;3.10;2.47;;;;;;;9.85;94.61;101133.88;5042627;28;20378;-78
2022/12/20 04:42:01;;;;;;;5.00;2.92;;;;;;;9.86;94.00;101117.47;5029554;28;20045;-79
2022/12/20 04:44:26;;;;;;;6.75;2.78;;;;;;;9.86;94.60;101120.16;5032952;28;20044;-78
2022/12/20 04:46:52;;;;;;;3.55;2.70;;;;;;;9.85;94.99;101126.59;5043371;28;20168;-78
2022/12/20 04:49:17;;;;;;;4.65;2.35;;;;;;;9.91;94.63;101128.03;5037211;28;20049;-78
2022/12/20 04:51:43;;;;;;;4.38;3.03;;;;;;;9.90;94.42;101139.88;5031660;28;20033;-77
2022/12/20 04:54:10;;;;;;;5.50;2.20;;;;;;;9.87;94.91;101132.78;5015819;28;20388;-77
2022/12/20 04:56:56;;;;;;;3.83;2.50;;;;;;;9.88;94.93;101130.94;5040145;28;20030;-77
2022/12/20 04:59:22;;;;;;;6.35;2.65;;;;;;;9.87;94.77;101118.31;5050063;28;20525;-78
2022/12/20 05:01:50;;;;;;;4.75;2.90;;;;;;;9.91;94.34;101118.03;5039827;28;20068;-78
2022/12/20 05:04:30;;;;;;;4.35;2.40;;;;;;;9.94;94.56;101119.69;5049910;28;20037;-78
2022/12/20 05:06:56;;;;;;;3.13;2.70;;;;;;;9.87;94.70;101115.59;5050752;28;20116;-79
2022/12/20 05:09:21;;;;;;;3.65;2.55;;;;;;;9.93;94.58;101112.47;5067287;28;20380;-78
2022/12/20 05:11:47;;;;;;;4.28;2.33;;;;;;;9.95;94.60;101116.00;5027495;28;20473;-78
2022/12/20 05:14:13;;;;;;;4.75;2.30;;;;;;;9.92;94.74;101100.75;5032000;28;20044;-78
2022/12/20 05:16:38;;;;;;;5.05;2.40;;;;;;;9.95;94.98;101102.41;5043134;28;20171;-80
2022/12/20 05:19:06;;;;;;;6.93;2.67;;;;;;;9.98;94.93;101099.50;5031348;28;20056;-78
2022/12/20 05:27:14;;;;;;;3.40;2.20;;;;;;;9.92;95.40;101079.00;5052197;28;20411;-78
2022/12/20 05:29:39;;;;;;;4.10;2.42;;;;;;;9.90;95.16;101083.69;5046673;28;20041;-79
2022/12/20 05:32:05;;;;;;;5.97;2.70;;;;;;;9.91;95.41;101073.69;5031719;28;20127;-78
2022/12/20 05:34:32;;;;;;;3.63;2.78;;;;;;;9.92;95.60;101084.44;5030965;28;20496;-78
2022/12/20 05:36:57;;;;;;;3.88;2.28;;;;;;;9.90;95.72;101082.81;5032799;28;20159;-78
2022/12/20 05:39:26;;;;;;;6.88;2.63;;;;;;;9.93;95.62;101080.78;5052314;28;20037;-78
2022/12/20 05:41:55;;;;;;;3.70;2.45;;;;;;;9.91;95.69;101071.81;5052426;28;20028;-78
2022/12/20 05:44:23;;;;;;;2.78;2.35;;;;;;;9.92;95.62;101070.84;5065021;28;20044;-78
2022/12/20 05:46:51;;;;;;;5.68;2.42;;;;;;;9.92;95.64;101061.81;5031609;28;20033;-78
2022/12/20 05:49:23;;;;;;;7.38;2.50;;;;;;;9.94;95.54;101068.06;5015477;28;20034;-79
2022/12/20 05:51:49;;;;;;;3.00;1.88;;;;;;;9.93;95.24;101063.56;5014682;28;20068;-79
2022/12/20 05:54:24;;;;;;;3.45;2.00;;;;;;;9.92;95.27;101059.09;5028492;28;20037;-78
2022/12/20 05:57:05;;;;;;;4.15;2.22;;;;;;;9.90;95.30;101058.34;5030840;28;20037;-79
2022/12/20 05:59:35;;;;;;;2.55;2.20;;;;;;;9.85;95.48;101046.91;5031368;28;20033;-79
2022/12/20 06:02:02;;;;;;;6.03;2.58;;;;;;;9.90;95.17;101047.47;5035318;28;20033;-78
2022/12/20 06:04:27;;;;;;;2.58;2.33;;;;;;;9.91;94.83;101050.09;5029984;28;20034;-79
2022/12/20 06:06:53;;;;;;;3.25;1.92;;;;;;;9.90;94.94;101045.63;5047626;28;20036;-79
2022/12/20 06:09:19;;;;;;;3.30;2.20;;;;;;;9.89;95.11;101037.59;5048200;28;20060;-79
2022/12/20 06:11:53;;;;;;;3.95;2.08;;;;;;;9.92;94.95;101030.09;5048568;28;20059;-78
2022/12/20 06:14:20;;;;;;;3.95;2.15;;;;;;;9.93;94.07;101015.53;5035686;28;20029;-79
2022/12/20 06:16:46;;;;;;;4.63;2.17;;;;;;;9.92;94.23;101007.47;5036826;28;20049;-79
2022/12/20 06:19:13;;;;;;;5.70;2.33;;;;;;;9.94;93.99;101017.28;5035120;28;20102;-79
2022/12/20 06:21:39;;;;;;;2.75;2.15;;;;;;;9.92;94.18;101024.66;5047450;28;20497;-78
2022/12/20 06:24:07;;;;;;;5.25;2.30;;;;;;;9.90;93.79;101015.75;5040604;28;20522;-78
2022/12/20 06:26:35;;;;;;;2.10;1.90;;;;;;;9.88;93.66;101017.66;5030779;28;20043;-78
2022/12/20 06:29:05;;;;;;;5.90;2.15;;;;;;;9.85;93.07;101031.47;5038793;28;20033;-78
2022/12/20 06:31:39;;;;;;;2.28;1.95;;;;;;;9.81;93.37;101020.91;5038228;28;20082;-79
2022/12/20 06:34:06;;;;;;;4.40;1.95;;;;;;;9.76;93.54;101028.50;5026998;28;20455;-78
2022/12/20 06:36:34;;;;;;;3.25;1.70;;;;;;;9.74;93.21;101028.59;5043097;28;20530;-78
2022/12/20 06:39:01;;;;;;;3.25;2.30;;;;;;;9.71;93.34;101029.69;5044676;28;20644;-79
2022/12/20 06:41:27;;;;;;;3.45;2.05;;;;;;;9.75;92.65;101040.34;5028556;28;20516;-80
2022/12/20 06:43:53;;;;;;;6.80;2.20;;;;;;;9.79;92.64;101037.34;5028989;28;20033;-80
2022/12/20 06:46:18;;;;;;;3.15;2.03;;;;;;;9.79;92.70;101036.44;5027356;28;20819;-79
2022/12/20 06:48:44;;;;;;;6.32;2.00;;;;;;;9.75;92.26;101035.78;5027425;28;20036;-79
2022/12/20 06:51:11;;;;;;;5.22;2.50;;;;;;;9.76;92.52;101025.78;5032726;28;20063;-79
2022/12/20 06:53:36;;;;;;;3.75;2.40;;;;;;;9.77;92.24;101028.38;5045081;28;20063;-79
2022/12/20 06:56:01;;;;;;;4.50;1.83;;;;;;;9.74;91.30;101030.44;5047633;28;20472;-79
2022/12/20 06:58:30;;;;;;;2.95;1.85;;;;;;;9.71;91.10;101016.09;5047721;28;20402;-80
2022/12/20 07:00:55;;;;;;;2.53;2.08;;;;;;;9.76;91.26;101029.38;5033261;28;20041;-79
2022/12/20 07:03:21;;;;;;;4.32;2.25;;;;;;;9.75;91.35;101033.06;5027645;28;20029;-78
2022/12/20 07:05:55;;;;;;;3.50;1.98;;;;;;;9.72;91.77;101030.53;5034749;28;20032;-78
2022/12/20 07:08:22;;;;;;;5.25;1.90;;;;;;;9.73;91.52;101043.16;5048817;28;20112;-78
2022/12/20 07:10:48;;;;;;;5.85;2.00;;;;;;;9.71;91.78;101043.25;5046932;28;20032;-79
2022/12/20 07:13:13;;;;;;;7.43;2.95;;;;;;;9.65;91.32;101032.81;5048614;28;20149;-79
2022/12/20 07:15:38;;;;;;;5.32;1.83;;;;;;;9.70;91.67;101032.50;5035511;28;20145;-79
2022/12/20 07:18:04;;;;;;;4.03;2.00;;;;;;;9.73;91.33;101034.13;5027094;28;20033;-79
2022/12/20 07:20:30;;;;;;;2.97;2.38;;;;;;;9.74;91.22;101042.16;5026843;28;20037;-78
2022/12/20 07:22:55;;;;;;;3.03;1.60;;;;;;;9.72;90.67;101035.97;5028755;28;20040;-78
2022/12/20 07:25:21;;;;;;;3.63;1.73;;;;;;;9.80;90.44;101038.19;5027054;28;20041;-79
2022/12/20 07:27:48;;;;;;;2.65;1.98;;;;;;;9.80;91.07;101030.91;5027583;28;20405;-79
2022/12/20 07:30:15;;;;;;;2.72;2.03;;;;;;;9.79;90.66;101031.91;5033049;28;20528;-80
2022/12/20 07:32:40;;;;;;;3.30;2.17;;;;;;;9.85;90.26;101030.63;5027889;28;20480;-78
2022/12/20 07:35:06;;;;;;;4.65;1.85;;;;;;;9.87;90.31;101034.09;5029228;28;20040;-79
2022/12/20 07:37:31;;;;;;;3.55;1.95;;;;;;;9.85;90.12;101036.91;5047480;28;20457;-79
2022/12/20 07:39:57;;;;;;;5.30;2.20;;;;;;;9.85;89.78;101034.19;5047204;28;20039;-80
2022/12/20 07:42:22;;;;;;;3.50;1.80;;;;;;;9.84;90.08;101037.91;5046639;28;20128;-79
2022/12/20 07:44:49;;;;;;;5.45;1.90;;;;;;;9.85;89.95;101034.19;5041189;28;20044;-80
2022/12/20 07:47:14;;;;;;;2.55;1.80;;;;;;;9.86;89.74;101041.38;5027668;28;20484;-80
2022/12/20 07:49:39;;;;;;;2.95;1.73;;;;;;;9.88;89.44;101041.25;5035588;28;20491;-81
2022/12/20 07:52:07;;;;;;;3.85;1.85;;;;;;;9.93;89.36;101052.69;5042572;28;20068;-79
2022/12/20 07:54:36;;;;;;;3.70;2.00;;;;;;;9.93;89.02;101047.25;5042571;28;20039;-79
2022/12/20 07:57:11;;;;;;;2.72;2.03;;;;;;;9.93;89.92;101059.03;5041338;28;20028;-80
2022/12/20 07:59:43;;;;;;;2.88;2.03;;;;;;;9.95;89.56;101057.06;5037340;28;20086;-79
2022/12/20 08:02:14;;;;;;;1.95;1.77;;;;;;;9.96;90.10;101066.94;5033360;28;20037;-80
2022/12/20 08:04:40;;;;;;;5.00;2.72;;;;;;;9.92;91.02;101056.38;5026765;28;20399;-79
2022/12/20 08:07:07;;;;;;;2.47;1.80;;;;;;;9.92;91.85;101051.81;5038192;28;20047;-79
2022/12/20 08:09:38;;;;;;;4.32;1.77;;;;;;;9.88;92.23;101057.56;5025468;28;20033;-79
2022/12/20 08:12:03;;;;;;;3.38;1.80;;;;;;;9.86;93.13;101059.53;5027264;28;20512;-80
2022/12/20 08:14:29;;;;;;;3.33;1.95;;;;;;;9.83;93.84;101057.00;5029403;28;20022;-79
2022/12/20 08:16:54;;;;;;;4.32;2.00;;;;;;;9.77;94.41;101046.53;5040828;28;20057;-79
2022/12/20 08:19:20;;;;;;;5.95;2.20;;;;;;;9.75;94.54;101049.38;5034891;28;20059;-79
2022/12/20 08:21:45;;;;;;;3.05;2.20;;;;;;;9.72;95.32;101052.28;5045144;28;20036;-79
2022/12/20 08:24:10;;;;;;;3.38;1.92;;;;;;;9.70;95.65;101049.69;5046223;28;20048;-79
2022/12/20 08:26:37;;;;;;;5.07;2.28;;;;;;;9.68;95.65;101056.16;5026398;28;20127;-78
2022/12/20 08:29:03;;;;;;;4.25;2.28;;;;;;;9.66;95.63;101048.13;5026921;28;20033;-79
2022/12/20 08:31:28;;;;;;;3.97;2.22;;;;;;;9.68;96.30;101057.03;5032695;28;20047;-78
2022/12/20 08:33:54;;;;;;;4.93;2.22;;;;;;;9.69;96.87;101057.91;5040824;28;20045;-78
2022/12/20 08:36:19;;;;;;;2.67;2.10;;;;;;;9.60;97.06;101043.06;5038310;28;20059;-79
2022/12/20 08:38:45;;;;;;;7.70;2.30;;;;;;;9.60;97.51;101048.50;5046862;28;20059;-78
2022/12/20 08:41:13;;;;;;;5.53;2.42;;;;;;;9.62;98.27;101053.84;5047122;28;20112;-79
2022/12/20 08:43:40;;;;;;;5.35;2.00;;;;;;;9.59;97.94;101052.19;5041047;28;20034;-78
2022/12/20 08:46:06;;;;;;;3.20;2.13;;;;;;;9.58;98.23;101044.16;5026709;28;20504;-78
2022/12/20 08:48:32;;;;;;;6.53;2.03;;;;;;;9.58;98.41;101047.75;5026548;28;20111;-78
2022/12/20 08:51:01;;;;;;;2.75;2.15;;;;;;;9.54;98.59;101043.47;5027071;28;20037;-79
2022/12/20 08:53:28;;;;;;;4.25;2.20;;;;;;;9.52;98.70;101039.13;5027762;28;20424;-79
2022/12/20 08:55:53;;;;;;;4.78;1.95;;;;;;;9.51;99.30;101042.81;5030305;28;20029;-79
2022/12/20 08:58:19;;;;;;;4.97;2.08;;;;;;;9.49;99.18;101042.03;5046765;28;20041;-78
2022/12/20 09:00:45;;;;;;;3.72;2.25;;;;;;;9.45;99.66;101039.50;5033803;28;20430;-78
2022/12/20 09:03:12;;;;;;;4.07;2.38;;;;;;;9.46;99.65;101037.66;5026030;28;20132;-78
2022/12/20 09:05:46;;;;;;;2.13;1.80;;;;;;;9.47;99.95;101035.84;5032130;28;20053;-79
2022/12/20 09:08:13;;;;;;;3.90;2.40;;;;;;;9.41;100.00;101024.38;5046976;28;20098;-78
2022/12/20 09:10:38;;;;;;;4.78;2.35;;;;;;;9.41;100.00;101031.66;5042878;28;20025;-78
2022/12/20 09:13:04;;;;;;;3.15;2.30;;;;;;;9.38;100.00;101030.03;5025585;28;20511;-78
2022/12/20 09:15:30;;;;;;;7.22;2.55;;;;;;;9.40;100.00;101019.06;5036237;28;20047;-78
2022/12/20 09:17:56;;;;;;;3.47;2.30;;;;;;;9.41;100.00;101018.09;5027866;28;20085;-78
2022/12/20 09:20:21;;;;;;;4.47;2.72;;;;;;;9.43;100.00;101024.31;5025528;28;20046;-78
2022/12/20 09:22:46;;;;;;;8.00;2.47;;;;;;;9.40;100.00;101008.22;5026467;28;20045;-78
2022/12/20 09:25:12;;;;;;;5.25;2.60;;;;;;;9.48;100.00;101035.75;5026545;28;20087;-78
2022/12/20 09:27:38;;;;;;;4.45;2.28;;;;;;;9.48;100.00;101030.31;5025829;28;20049;-78
2022/12/20 09:30:04;;;;;;;4.03;2.58;;;;;;;9.48;100.00;101033.03;5029298;28;20063;-78
2022/12/20 09:32:29;;;;;;;7.38;2.80;;;;;;;9.53;100.00;101028.16;5030505;28;20053;-78
2022/12/20 09:34:55;;;;;;;4.15;2.88;;;;;;;9.58;100.00;101036.00;5043030;28;20423;-79
2022/12/20 09:37:20;;;;;;;4.72;2.63;;;;;;;9.62;100.00;101035.72;5081772;28;20486;-78
2022/12/20 09:39:48;;;;;;;5.53;2.75;;;;;;;9.64;100.00;101032.88;5048953;28;20056;-78
2022/12/20 09:42:14;;;;;;;6.32;2.75;;;;;;;9.67;100.00;101030.84;5050579;28;20067;-79
2022/12/20 09:44:41;;;;;;;3.92;2.55;;;;;;;9.67;100.00;101025.41;5036782;28;20484;-79
2022/12/20 09:47:13;;;;;;;6.90;2.40;;;;;;;9.70;100.00;101027.06;5041517;28;20116;-78
2022/12/20 09:49:42;;;;;;;5.75;2.85;;;;;;;9.73;100.00;101023.25;5036217;28;20037;-79
2022/12/20 09:52:26;;;;;;;4.03;2.53;;;;;;;9.79;100.00;101031.91;5029807;28;20471;-78
2022/12/20 09:55:09;;;;;;;7.40;2.53;;;;;;;9.80;100.00;101039.06;5028840;28;20295;-78
2022/12/20 09:58:10;;;;;;;2.63;2.20;;;;;;;9.82;100.00;101028.09;5030428;28;20055;-78
2022/12/20 10:00:43;;;;;;;7.70;3.28;;;;;;;9.76;100.00;101021.22;5028413;28;20040;-78
2022/12/20 10:03:24;;;;;;;4.50;2.40;;;;;;;9.75;100.00;101019.50;5029077;28;20049;-78
2022/12/20 10:05:53;;;;;;;2.92;2.25;;;;;;;9.76;100.00;101031.22;5036897;28;20496;-79
2022/12/20 10:08:49;;;;;;;5.25;2.70;;;;;;;9.76;100.00;101021.22;5044403;28;20018;-78
2022/12/20 10:11:43;;;;;;;5.90;2.75;;;;;;;9.77;100.00;101020.25;5012351;28;20064;-78
2022/12/20 10:14:29;;;;;;;3.40;2.80;;;;;;;9.80;100.00;101014.63;5029948;28;20473;-78
2022/12/20 10:17:03;;;;;;;4.55;2.53;;;;;;;9.80;100.00;101022.78;5034866;28;20587;-78
2022/12/20 10:19:48;;;;;;;5.47;2.80;;;;;;;9.85;100.00;101009.75;5029376;28;20445;-79
2022/12/20 10:22:19;;;;;;;4.53;2.30;;;;;;;9.92;100.00;101018.34;5029238;28;20037;-78
2022/12/20 10:24:54;;;;;;;6.78;2.40;;;;;;;9.94;100.00;101014.56;5029360;28;20037;-78
2022/12/20 10:27:20;;;;;;;3.75;2.58;;;;;;;9.97;100.00;101018.91;5029585;28;20433;-77
2022/12/20 10:29:48;;;;;;;3.60;2.30;;;;;;;10.00;99.81;101010.56;5043093;28;20026;-78
2022/12/20 10:32:22;;;;;;;3.97;2.38;;;;;;;10.03;99.70;101014.94;5029710;28;20517;-79
2022/12/20 10:34:54;;;;;;;3.92;2.50;;;;;;;10.07;99.39;101002.84;5028210;28;20041;-78
2022/12/20 10:37:19;;;;;;;3.92;2.38;;;;;;;10.13;99.03;101013.31;5028866;28;20126;-78
2022/12/20 10:39:50;;;;;;;4.72;2.55;;;;;;;10.13;98.98;101011.47;5028865;28;20033;-79
2022/12/20 10:42:25;;;;;;;5.82;2.58;;;;;;;10.12;99.52;101004.31;5029354;28;20580;-78
2022/12/20 10:44:52;;;;;;;4.18;2.13;;;;;;;10.13;99.73;101006.03;5029125;28;20044;-78
2022/12/20 10:47:30;;;;;;;6.25;3.03;;;;;;;10.10;100.00;100998.06;5029087;28;20041;-78
2022/12/20 10:50:09;;;;;;;7.07;2.60;;;;;;;10.06;100.00;100993.81;5028935;28;20092;-78
2022/12/20 10:52:34;;;;;;;4.32;3.17;;;;;;;10.03;100.00;100991.34;5033827;28;20045;-79
2022/12/20 10:55:00;;;;;;;5.13;2.90;;;;;;;9.99;100.00;100992.50;5047513;28;20037;-77
2022/12/20 10:57:28;;;;;;;5.57;3.30;;;;;;;9.97;100.00;101003.47;5046843;28;20048;-78
2022/12/20 11:00:04;;;;;;;4.90;3.08;;;;;;;9.94;100.00;100998.25;5028894;28;20025;-79
2022/12/20 11:02:33;;;;;;;6.18;3.40;;;;;;;9.93;100.00;100993.81;5028999;28;20033;-77
2022/12/20 11:05:01;;;;;;;7.55;3.83;;;;;;;9.92;100.00;100996.59;5011490;28;20061;-78
2022/12/20 11:07:30;;;;;;;6.22;3.30;;;;;;;9.87;100.00;100986.03;5048782;28;20544;-78
2022/12/20 11:10:18;;;;;;;8.07;3.40;;;;;;;9.89;100.00;100985.97;5048254;28;20190;-78
2022/12/20 11:13:00;;;;;;;8.15;3.20;;;;;;;9.87;100.00;100985.19;5043000;28;20426;-78
2022/12/20 11:15:29;;;;;;;5.97;3.05;;;;;;;9.85;100.00;100989.84;5028715;28;20419;-78
2022/12/20 11:18:21;;;;;;;9.90;3.33;;;;;;;9.86;100.00;100981.59;5045541;28;20139;-77
2022/12/20 11:21:31;;;;;;;4.68;3.03;;;;;;;9.83;100.00;100976.34;5027150;28;20068;-78
2022/12/20 11:24:01;;;;;;;7.93;3.72;;;;;;;9.84;100.00;100978.13;5027806;28;20488;-78
2022/12/20 11:27:00;;;;;;;7.07;3.13;;;;;;;9.81;100.00;100981.03;5037993;28;20488;-78
2022/12/20 11:29:29;;;;;;;5.22;2.67;;;;;;;9.83;100.00;100981.78;5047502;28;20150;-78
2022/12/20 11:32:32;;;;;;;7.38;3.13;;;;;;;9.82;100.00;100976.47;5028331;28;20041;-78
2022/12/20 11:35:18;;;;;;;3.97;2.38;;;;;;;9.85;100.00;100976.28;5040521;28;20044;-78
2022/12/20 11:38:02;;;;;;;4.72;3.22;;;;;;;9.89;100.00;100983.25;5047690;28;20404;-77
2022/12/20 11:40:32;;;;;;;7.03;3.10;;;;;;;9.91;100.00;100973.13;5036741;28;20038;-78
2022/12/20 11:43:16;;;;;;;5.15;3.33;;;;;;;9.92;100.00;100970.28;5027430;28;20554;-77
2022/12/20 11:46:11;;;;;;;7.43;3.58;;;;;;;9.89;100.00;100962.38;5026635;28;20120;-78
2022/12/20 11:48:45;;;;;;;4.80;3.25;;;;;;;9.89;100.00;100965.09;5027545;28;20223;-79